createdAt,value
2017-06-27T00:01:25.614Z,13.90
2017-06-27T00:03:53.910Z,14.00
2017-06-27T00:06:22.497Z,14.00
2017-06-27T00:08:50.798Z,13.90
2017-06-27T00:11:19.070Z,13.90
2017-06-27T00:13:47.671Z,13.90
2017-06-27T00:16:16.447Z,13.90
2017-06-27T00:18:45.235Z,13.90
2017-06-27T00:21:13.826Z,13.90
2017-06-27T00:23:42.122Z,13.90
2017-06-27T00:26:10.422Z,13.90
2017-06-27T00:28:38.949Z,13.80
2017-06-27T00:31:07.282Z,13.80
2017-06-27T00:33:35.653Z,13.80
2017-06-27T00:36:04.237Z,13.80
2017-06-27T00:38:33.155Z,13.80
2017-06-27T00:41:01.437Z,13.70
2017-06-27T00:43:30.011Z,13.70
2017-06-27T00:45:58.383Z,13.70
2017-06-27T00:48:26.668Z,13.70
2017-06-27T00:50:55.362Z,13.60
2017-06-27T00:53:23.665Z,13.60
2017-06-27T00:55:52.780Z,13.60
2017-06-27T00:58:21.412Z,13.60
2017-06-27T01:00:50.116Z,13.50
2017-06-27T01:03:18.383Z,13.50
2017-06-27T01:05:48.441Z,13.40
2017-06-27T01:08:16.707Z,13.40
2017-06-27T01:10:45.520Z,13.40
2017-06-27T01:13:14.184Z,13.30
2017-06-27T01:15:42.986Z,13.30
2017-06-27T01:18:11.266Z,13.30
2017-06-27T01:20:39.846Z,13.20
2017-06-27T01:23:08.127Z,13.10
2017-06-27T01:25:36.416Z,13.10
2017-06-27T01:28:05.015Z,13.00
2017-06-27T01:30:33.387Z,13.00
2017-06-27T01:33:01.667Z,12.90
2017-06-27T01:35:30.276Z,12.90
2017-06-27T01:37:58.645Z,12.80
2017-06-27T01:40:26.915Z,12.80
2017-06-27T01:42:55.510Z,12.70
2017-06-27T01:45:23.770Z,12.70
2017-06-27T01:47:52.062Z,12.70
2017-06-27T01:50:20.664Z,12.60
2017-06-27T01:52:48.947Z,12.60
2017-06-27T01:55:17.215Z,12.60
2017-06-27T01:57:45.768Z,12.50
2017-06-27T02:00:14.791Z,12.40
2017-06-27T02:02:43.054Z,12.30
2017-06-27T02:05:11.688Z,12.30
2017-06-27T02:07:39.983Z,12.20
2017-06-27T02:10:08.585Z,12.20
2017-06-27T02:12:38.385Z,12.10
2017-06-27T02:15:08.282Z,12.10
2017-06-27T02:17:36.975Z,12.00
2017-06-27T02:20:05.559Z,12.00
2017-06-27T02:22:33.843Z,12.00
2017-06-27T02:25:02.644Z,11.90
2017-06-27T02:27:31.729Z,11.90
2017-06-27T02:30:00.218Z,11.80
2017-06-27T02:32:28.810Z,11.70
2017-06-27T02:34:57.351Z,11.70
2017-06-27T02:37:26.496Z,11.60
2017-06-27T02:39:54.780Z,11.60
2017-06-27T02:42:23.353Z,11.60
2017-06-27T02:44:51.675Z,11.60
2017-06-27T02:47:20.044Z,11.70
2017-06-27T02:49:48.631Z,11.70
2017-06-27T02:52:17.511Z,11.70
2017-06-27T02:54:45.795Z,11.70
2017-06-27T02:57:14.396Z,11.70
2017-06-27T02:59:42.660Z,11.70
2017-06-27T03:02:10.954Z,11.70
2017-06-27T03:04:39.531Z,11.70
2017-06-27T03:07:07.811Z,11.70
2017-06-27T03:09:36.091Z,11.70
2017-06-27T03:12:04.709Z,11.70
2017-06-27T03:14:33.331Z,11.80
2017-06-27T03:17:02.357Z,11.90
2017-06-27T03:19:30.962Z,11.80
2017-06-27T03:21:59.233Z,11.90
2017-06-27T03:24:28.347Z,11.90
2017-06-27T03:26:56.952Z,11.90
2017-06-27T03:29:26.162Z,12.00
2017-06-27T03:31:54.961Z,12.00
2017-06-27T03:34:23.529Z,12.10
2017-06-27T03:36:51.789Z,12.20
2017-06-27T03:39:20.053Z,12.30
2017-06-27T03:41:49.696Z,12.50
2017-06-27T03:44:17.970Z,12.60
2017-06-27T03:46:46.355Z,12.70
2017-06-27T03:49:14.959Z,12.90
2017-06-27T03:51:43.350Z,13.10
2017-06-27T03:54:11.894Z,13.20
2017-06-27T03:56:40.528Z,13.20
2017-06-27T03:59:08.826Z,13.40
2017-06-27T04:01:37.501Z,13.40
2017-06-27T04:04:06.076Z,13.60
2017-06-27T04:06:35.085Z,13.70
2017-06-27T04:09:03.352Z,13.80
2017-06-27T04:11:31.951Z,13.90
2017-06-27T04:14:00.325Z,14.00
2017-06-27T04:16:29.099Z,14.00
2017-06-27T04:18:58.124Z,14.10
2017-06-27T04:21:26.992Z,14.20
2017-06-27T04:23:55.875Z,14.40
2017-06-27T04:26:24.508Z,14.60
2017-06-27T04:28:52.893Z,14.80
2017-06-27T04:31:21.585Z,15.00
2017-06-27T04:33:50.168Z,15.10
2017-06-27T04:36:18.427Z,15.10
2017-06-27T04:38:46.706Z,15.20
2017-06-27T04:41:15.349Z,15.30
2017-06-27T04:43:44.357Z,15.30
2017-06-27T04:46:14.121Z,15.40
2017-06-27T04:48:42.710Z,15.40
2017-06-27T04:51:11.003Z,15.50
2017-06-27T04:53:40.616Z,15.60
2017-06-27T04:56:09.156Z,15.60
2017-06-27T04:58:38.260Z,15.50
2017-06-27T05:01:06.576Z,15.30
2017-06-27T05:03:35.145Z,15.00
2017-06-27T05:06:03.441Z,15.10
2017-06-27T05:08:32.200Z,15.10
2017-06-27T05:11:01.535Z,15.20
2017-06-27T05:13:29.841Z,15.00
2017-06-27T05:15:58.335Z,15.00
2017-06-27T05:18:27.741Z,14.90
2017-06-27T05:20:56.439Z,14.90
2017-06-27T05:23:25.141Z,15.00
2017-06-27T05:25:54.525Z,15.10
2017-06-27T05:28:22.856Z,15.00
2017-06-27T05:30:51.186Z,15.00
2017-06-27T05:33:19.715Z,15.00
2017-06-27T05:35:48.266Z,15.10
2017-06-27T05:38:17.357Z,15.30
2017-06-27T05:40:46.069Z,15.50
2017-06-27T05:43:15.158Z,15.90
2017-06-27T05:45:44.432Z,15.90
2017-06-27T05:48:13.072Z,16.10
2017-06-27T05:50:42.125Z,16.30
2017-06-27T05:53:12.944Z,16.30
2017-06-27T05:55:41.534Z,16.30
2017-06-27T05:58:09.849Z,16.50
2017-06-27T06:00:38.138Z,16.60
2017-06-27T06:03:07.575Z,16.80
2017-06-27T06:05:36.631Z,17.40
2017-06-27T06:08:05.542Z,17.40
2017-06-27T06:10:34.206Z,17.60
2017-06-27T06:13:02.618Z,17.70
2017-06-27T06:15:30.897Z,17.30
2017-06-27T06:17:59.466Z,17.20
2017-06-27T06:20:27.767Z,17.20
2017-06-27T06:22:56.726Z,17.30
2017-06-27T06:25:25.742Z,17.50
2017-06-27T06:27:54.797Z,17.80
2017-06-27T06:30:23.087Z,18.00
2017-06-27T06:32:52.181Z,18.30
2017-06-27T06:35:20.787Z,18.50
2017-06-27T06:37:49.116Z,18.10
2017-06-27T06:40:18.330Z,18.00
2017-06-27T06:42:48.750Z,17.90
2017-06-27T06:45:17.319Z,17.90
2017-06-27T06:47:45.901Z,18.10
2017-06-27T06:50:14.273Z,18.20
2017-06-27T06:55:18.743Z,18.20
2017-06-27T06:57:47.951Z,18.50
2017-06-27T07:00:17.061Z,18.80
2017-06-27T07:02:46.446Z,19.20
2017-06-27T07:05:14.775Z,19.20
2017-06-27T07:07:44.428Z,18.70
2017-06-27T07:10:12.999Z,18.70
2017-06-27T07:12:41.640Z,19.20
2017-06-27T07:15:10.721Z,19.90
2017-06-27T07:17:39.321Z,19.90
2017-06-27T07:20:08.178Z,20.10
2017-06-27T07:22:39.688Z,20.40
2017-06-27T07:25:08.349Z,20.60
2017-06-27T07:27:37.598Z,20.80
2017-06-27T07:30:05.940Z,20.70
2017-06-27T07:32:34.713Z,20.70
2017-06-27T07:35:03.235Z,20.70
2017-06-27T07:37:31.504Z,20.90
2017-06-27T07:40:00.081Z,20.90
2017-06-27T07:42:28.879Z,21.10
2017-06-27T07:44:57.162Z,21.50
2017-06-27T07:47:26.230Z,21.50
2017-06-27T07:49:54.544Z,21.40
2017-06-27T07:52:22.853Z,21.40
2017-06-27T07:54:52.214Z,21.10
2017-06-27T07:57:20.825Z,21.10
2017-06-27T07:59:49.106Z,20.80
2017-06-27T08:02:18.271Z,21.10
2017-06-27T08:04:46.791Z,21.40
2017-06-27T08:07:15.418Z,21.70
2017-06-27T08:09:44.783Z,22.10
2017-06-27T08:12:13.061Z,22.10
2017-06-27T08:14:41.390Z,22.50
2017-06-27T08:17:10.015Z,22.70
2017-06-27T08:19:38.280Z,22.90
2017-06-27T08:22:06.596Z,23.00
2017-06-27T08:24:35.296Z,23.20
2017-06-27T08:27:03.592Z,23.40
2017-06-27T08:29:34.170Z,23.80
2017-06-27T08:32:03.078Z,23.80
2017-06-27T08:34:31.484Z,23.60
2017-06-27T08:36:59.832Z,23.80
2017-06-27T08:39:28.448Z,24.00
2017-06-27T08:41:56.739Z,24.20
2017-06-27T08:44:25.225Z,24.30
2017-06-27T08:46:54.034Z,24.50
2017-06-27T08:49:22.292Z,24.40
2017-06-27T08:51:50.794Z,24.50
2017-06-27T08:54:20.115Z,24.10
2017-06-27T08:56:49.263Z,23.00
2017-06-27T08:59:17.566Z,23.00
2017-06-27T09:01:47.140Z,23.30
2017-06-27T09:04:16.161Z,23.50
2017-06-27T09:06:45.271Z,24.00
2017-06-27T09:09:13.860Z,24.30
2017-06-27T09:11:42.156Z,24.30
2017-06-27T09:14:10.509Z,24.30
2017-06-27T09:16:39.088Z,24.60
2017-06-27T09:19:07.375Z,25.10
2017-06-27T09:21:35.681Z,25.20
2017-06-27T09:24:04.283Z,25.20
2017-06-27T09:26:33.396Z,25.10
2017-06-27T09:29:01.664Z,24.50
2017-06-27T09:31:31.036Z,24.30
2017-06-27T09:33:59.341Z,24.30
2017-06-27T09:36:27.614Z,24.40
2017-06-27T09:38:56.193Z,24.60
2017-06-27T09:41:24.489Z,24.90
2017-06-27T09:43:52.842Z,24.80
2017-06-27T09:46:21.412Z,24.40
2017-06-27T09:48:49.741Z,24.50
2017-06-27T09:51:18.061Z,25.10
2017-06-27T09:53:47.436Z,24.60
2017-06-27T09:56:15.700Z,24.60
2017-06-27T09:58:44.096Z,25.20
2017-06-27T10:01:12.686Z,25.90
2017-06-27T10:03:41.789Z,26.40
2017-06-27T10:06:10.072Z,26.70
2017-06-27T10:08:39.399Z,26.80
2017-06-27T10:11:08.487Z,27.40
2017-06-27T10:13:36.821Z,27.40
2017-06-27T10:16:05.437Z,27.70
2017-06-27T10:18:33.999Z,28.10
2017-06-27T10:21:02.292Z,28.30
2017-06-27T10:23:30.885Z,27.70
2017-06-27T10:25:59.271Z,27.50
2017-06-27T10:28:27.547Z,27.80
2017-06-27T10:30:56.557Z,27.90
2017-06-27T10:33:24.837Z,28.00
2017-06-27T10:35:53.208Z,28.20
2017-06-27T10:38:21.792Z,28.50
2017-06-27T10:40:50.102Z,28.30
2017-06-27T10:43:18.383Z,28.30
2017-06-27T10:45:47.769Z,28.00
2017-06-27T10:48:16.048Z,27.50
2017-06-27T10:50:45.179Z,27.70
2017-06-27T10:53:13.786Z,27.40
2017-06-27T10:55:43.507Z,27.30
2017-06-27T10:58:11.812Z,27.20
2017-06-27T11:00:40.761Z,27.40
2017-06-27T11:03:09.606Z,28.00
2017-06-27T11:05:38.442Z,28.70
2017-06-27T11:08:07.814Z,29.00
2017-06-27T11:10:37.659Z,30.70
2017-06-27T11:13:05.964Z,30.70
2017-06-27T11:15:34.617Z,31.10
2017-06-27T11:18:04.035Z,31.60
2017-06-27T11:20:32.333Z,31.50
2017-06-27T11:23:02.000Z,31.20
2017-06-27T11:25:30.877Z,30.90
2017-06-27T11:27:59.297Z,31.20
2017-06-27T11:30:27.893Z,31.30
2017-06-27T11:32:57.027Z,30.90
2017-06-27T11:35:25.492Z,30.20
2017-06-27T11:37:54.144Z,29.90
2017-06-27T11:40:22.444Z,31.00
2017-06-27T11:42:50.731Z,32.00
2017-06-27T11:45:19.412Z,33.10
2017-06-27T11:47:47.822Z,34.10
2017-06-27T11:50:16.196Z,34.50
2017-06-27T11:52:44.815Z,34.40
2017-06-27T11:55:13.101Z,34.50
2017-06-27T11:57:42.172Z,34.00
2017-06-27T12:00:23.380Z,33.90
2017-06-27T12:02:51.890Z,33.80
2017-06-27T12:05:32.575Z,33.90
2017-06-27T12:08:06.832Z,34.70
2017-06-27T12:10:35.503Z,35.80
2017-06-27T12:13:05.704Z,35.00
2017-06-27T12:15:34.419Z,34.90
2017-06-27T12:18:02.721Z,34.60
2017-06-27T12:20:31.005Z,33.70
2017-06-27T12:22:59.572Z,33.50
2017-06-27T12:25:28.662Z,32.90
2017-06-27T12:27:57.072Z,32.90
2017-06-27T12:30:26.286Z,32.60
2017-06-27T12:32:55.435Z,35.20
2017-06-27T12:35:23.723Z,35.20
2017-06-27T12:37:52.349Z,36.20
2017-06-27T12:40:20.675Z,37.10
2017-06-27T12:42:48.993Z,37.10
2017-06-27T12:45:17.722Z,37.10
2017-06-27T12:47:46.308Z,37.50
2017-06-27T12:50:15.386Z,37.80
2017-06-27T12:52:43.959Z,37.80
2017-06-27T12:55:12.272Z,37.90
2017-06-27T12:57:42.390Z,40.00
2017-06-27T13:00:12.083Z,41.30
2017-06-27T13:02:41.518Z,42.90
2017-06-27T13:05:10.577Z,43.80
2017-06-27T13:07:39.161Z,43.80
2017-06-27T13:10:07.473Z,44.30
2017-06-27T13:12:36.161Z,44.90
2017-06-27T13:15:04.814Z,44.90
2017-06-27T13:17:33.127Z,44.90
2017-06-27T13:20:02.241Z,46.30
2017-06-27T13:22:31.663Z,46.30
2017-06-27T13:25:00.924Z,46.30
2017-06-27T13:27:30.306Z,45.50
2017-06-27T13:29:58.951Z,45.00
2017-06-27T13:32:28.719Z,46.40
2017-06-27T13:34:57.056Z,46.40
2017-06-27T13:37:25.739Z,46.80
2017-06-27T13:39:54.122Z,47.80
2017-06-27T13:42:24.099Z,49.10
2017-06-27T13:44:53.506Z,49.10
2017-06-27T13:47:21.884Z,49.20
2017-06-27T13:49:50.192Z,49.70
2017-06-27T13:52:18.767Z,49.30
2017-06-27T13:54:47.061Z,49.00
2017-06-27T13:57:16.195Z,48.50
2017-06-27T13:59:44.849Z,48.50
2017-06-27T14:02:13.230Z,47.80
2017-06-27T14:04:43.151Z,45.00
2017-06-27T14:07:12.522Z,44.90
2017-06-27T14:09:40.840Z,46.10
2017-06-27T14:12:09.946Z,47.00
2017-06-27T14:14:39.356Z,47.00
2017-06-27T14:17:10.150Z,46.70
2017-06-27T14:19:38.459Z,46.60
2017-06-27T14:22:07.165Z,46.60
2017-06-27T14:24:35.536Z,46.40
2017-06-27T14:27:05.812Z,45.70
2017-06-27T14:29:34.597Z,45.70
2017-06-27T14:32:03.345Z,46.00
2017-06-27T14:34:31.665Z,46.50
2017-06-27T14:37:01.153Z,46.40
2017-06-27T14:39:29.444Z,46.40
2017-06-27T14:41:58.519Z,47.00
2017-06-27T14:44:27.231Z,47.00
2017-06-27T14:46:56.286Z,48.40
2017-06-27T14:49:24.598Z,48.30
2017-06-27T14:51:53.992Z,48.50
2017-06-27T14:54:22.322Z,48.90
2017-06-27T14:59:20.483Z,47.50
2017-06-27T15:01:48.779Z,47.20
2017-06-27T15:04:18.648Z,46.60
2017-06-27T15:06:48.044Z,46.60
2017-06-27T15:09:17.873Z,43.70
2017-06-27T15:11:46.194Z,43.70
2017-06-27T15:14:14.784Z,43.70
2017-06-27T15:16:43.917Z,43.70
2017-06-27T15:19:12.256Z,43.60
2017-06-27T15:21:40.981Z,44.00
2017-06-27T15:24:10.078Z,43.10
2017-06-27T15:26:39.130Z,43.10
2017-06-27T15:29:07.731Z,43.80
2017-06-27T15:31:36.564Z,44.50
2017-06-27T15:34:04.880Z,44.50
2017-06-27T15:36:33.606Z,43.90
2017-06-27T15:39:02.508Z,42.70
2017-06-27T15:41:30.795Z,41.90
2017-06-27T15:43:59.450Z,41.00
2017-06-27T15:46:28.883Z,38.70
2017-06-27T15:48:58.313Z,37.20
2017-06-27T15:51:26.874Z,37.10
2017-06-27T15:53:55.169Z,36.10
2017-06-27T15:56:24.247Z,35.20
2017-06-27T15:58:52.853Z,33.90
2017-06-27T16:01:21.813Z,32.50
2017-06-27T16:03:50.850Z,31.70
2017-06-27T16:06:19.797Z,31.10
2017-06-27T16:08:48.065Z,30.80
2017-06-27T16:11:18.500Z,30.50
2017-06-27T16:13:47.850Z,30.00
2017-06-27T16:16:16.137Z,30.00
2017-06-27T16:18:45.992Z,29.80
2017-06-27T16:21:14.671Z,29.80
2017-06-27T16:23:43.542Z,29.50
2017-06-27T16:26:12.303Z,29.40
2017-06-27T16:28:41.947Z,29.30
2017-06-27T16:31:10.338Z,29.20
2017-06-27T16:33:38.639Z,29.00
2017-06-27T16:36:08.313Z,28.90
2017-06-27T16:38:36.616Z,28.60
2017-06-27T16:41:05.513Z,28.50
2017-06-27T16:43:34.195Z,28.50
2017-06-27T16:46:02.510Z,28.30
2017-06-27T16:48:31.386Z,28.20
2017-06-27T16:51:00.211Z,28.10
2017-06-27T16:53:28.521Z,28.00
2017-06-27T16:55:56.803Z,27.90
2017-06-27T16:58:25.390Z,27.90
2017-06-27T17:00:55.618Z,27.90
2017-06-27T17:03:23.892Z,27.80
2017-06-27T17:05:52.515Z,27.70
2017-06-27T17:08:21.009Z,27.60
2017-06-27T17:10:49.293Z,27.60
2017-06-27T17:13:19.305Z,27.50
2017-06-27T17:15:48.213Z,27.30
2017-06-27T17:18:17.349Z,27.30
2017-06-27T17:20:45.934Z,27.20
2017-06-27T17:23:15.110Z,27.00
2017-06-27T17:25:44.961Z,26.90
2017-06-27T17:28:14.203Z,26.80
2017-06-27T17:30:42.980Z,26.70
2017-06-27T17:33:11.315Z,26.60
2017-06-27T17:35:39.980Z,26.60
2017-06-27T17:38:08.297Z,26.50
2017-06-27T17:40:37.370Z,26.40
2017-06-27T17:43:06.039Z,26.30
2017-06-27T17:45:34.441Z,26.20
2017-06-27T17:48:03.623Z,26.10
2017-06-27T17:50:32.333Z,26.00
2017-06-27T17:53:00.599Z,25.90
2017-06-27T17:55:28.899Z,25.80
2017-06-27T17:57:57.469Z,25.80
2017-06-27T18:00:26.443Z,25.60
2017-06-27T18:02:54.761Z,25.40
2017-06-27T18:05:24.047Z,25.20
2017-06-27T18:07:53.130Z,25.10
2017-06-27T18:10:21.863Z,25.00
2017-06-27T18:12:50.546Z,24.90
2017-06-27T18:15:19.120Z,24.80
2017-06-27T18:17:47.436Z,24.60
2017-06-27T18:20:15.995Z,24.50
2017-06-27T18:22:44.311Z,24.40
2017-06-27T18:25:13.466Z,24.30
2017-06-27T18:27:42.286Z,24.20
2017-06-27T18:30:10.567Z,24.20
2017-06-27T18:32:38.853Z,24.10
2017-06-27T18:35:07.956Z,24.00
2017-06-27T18:37:36.874Z,23.80
2017-06-27T18:40:06.562Z,23.60
2017-06-27T18:42:35.251Z,23.60
2017-06-27T18:45:03.623Z,23.50
2017-06-27T18:47:31.957Z,23.40
2017-06-27T18:50:00.706Z,23.30
2017-06-27T18:52:29.531Z,23.20
2017-06-27T18:54:59.568Z,23.00
2017-06-27T18:57:28.244Z,22.90
2017-06-27T18:59:57.997Z,22.70
2017-06-27T19:02:26.295Z,22.70
2017-06-27T19:04:54.897Z,22.60
2017-06-27T19:07:23.699Z,22.60
2017-06-27T19:09:52.844Z,22.50
2017-06-27T19:12:21.482Z,22.40
2017-06-27T19:14:49.779Z,22.30
2017-06-27T19:17:19.635Z,22.10
2017-06-27T19:19:48.242Z,22.10
2017-06-27T19:22:17.748Z,21.90
2017-06-27T19:24:46.605Z,21.90
2017-06-27T19:27:15.953Z,21.70
2017-06-27T19:29:44.246Z,21.70
2017-06-27T19:32:13.325Z,21.50
2017-06-27T19:34:42.969Z,21.40
2017-06-27T19:37:12.978Z,21.30
2017-06-27T19:39:41.476Z,21.20
2017-06-27T19:42:10.167Z,21.20
2017-06-27T19:44:39.202Z,21.10
2017-06-27T19:47:07.527Z,21.00
2017-06-27T19:49:36.210Z,20.90
2017-06-27T19:52:05.275Z,20.90
2017-06-27T19:54:34.738Z,20.80
2017-06-27T19:57:03.333Z,20.70
2017-06-27T19:59:31.603Z,20.60
2017-06-27T20:01:59.923Z,20.60
2017-06-27T20:04:29.619Z,20.40
2017-06-27T20:06:57.957Z,20.40
2017-06-27T20:09:26.519Z,20.30
2017-06-27T20:11:56.929Z,20.20
2017-06-27T20:14:26.217Z,20.10
2017-06-27T20:16:55.404Z,20.10
2017-06-27T20:19:24.106Z,20.10
2017-06-27T20:21:52.506Z,20.00
2017-06-27T20:24:20.755Z,20.00
2017-06-27T20:26:49.359Z,19.90
2017-06-27T20:29:19.372Z,19.80
2017-06-27T20:31:48.301Z,19.80
2017-06-27T20:34:17.674Z,19.60
2017-06-27T20:36:46.000Z,19.60
2017-06-27T20:39:15.083Z,19.50
2017-06-27T20:41:44.337Z,19.50
2017-06-27T20:44:12.643Z,19.50
2017-06-27T20:46:41.631Z,19.40
2017-06-27T20:49:11.053Z,19.40
2017-06-27T20:51:39.348Z,19.30
2017-06-27T20:54:08.795Z,19.30
2017-06-27T20:56:38.187Z,19.10
2017-06-27T20:59:07.349Z,19.00
2017-06-27T21:01:35.656Z,19.00
2017-06-27T21:04:05.043Z,18.90
2017-06-27T21:06:33.728Z,18.90
2017-06-27T21:09:02.116Z,18.80
2017-06-27T21:11:32.029Z,18.80
2017-06-27T21:14:00.856Z,18.70
2017-06-27T21:16:29.897Z,18.70
2017-06-27T21:18:59.424Z,18.60
2017-06-27T21:21:27.803Z,18.60
2017-06-27T21:23:56.182Z,18.50
2017-06-27T21:26:24.813Z,18.50
2017-06-27T21:28:53.180Z,18.40
2017-06-27T21:31:22.349Z,18.50
2017-06-27T21:33:50.955Z,18.40
2017-06-27T21:36:21.340Z,18.40
2017-06-27T21:38:49.643Z,18.40
2017-06-27T21:41:18.512Z,18.30
2017-06-27T21:43:47.561Z,18.30
2017-06-27T21:46:16.964Z,18.30
2017-06-27T21:48:45.578Z,18.30
2017-06-27T21:51:14.653Z,18.20
2017-06-27T21:53:42.962Z,18.20
2017-06-27T21:56:11.658Z,18.10
2017-06-27T21:58:39.948Z,18.10
2017-06-27T22:01:09.006Z,18.00
2017-06-27T22:03:37.614Z,18.00
2017-06-27T22:06:05.897Z,18.00
2017-06-27T22:08:34.739Z,17.90
2017-06-27T22:11:03.370Z,17.80
2017-06-27T22:13:32.336Z,17.80
2017-06-27T22:16:00.631Z,17.70
2017-06-27T22:18:30.451Z,17.60
2017-06-27T22:20:58.759Z,17.60
2017-06-27T22:23:28.000Z,17.60
2017-06-27T22:25:57.335Z,17.50
2017-06-27T22:28:25.629Z,17.40
2017-06-27T22:30:53.906Z,17.40
2017-06-27T22:33:23.318Z,17.30
2017-06-27T22:35:52.162Z,17.30
2017-06-27T22:38:21.287Z,17.20
2017-06-27T22:40:49.847Z,17.20
2017-06-27T22:43:19.058Z,17.20
2017-06-27T22:45:48.396Z,17.20
2017-06-27T22:48:17.029Z,17.10
2017-06-27T22:50:45.397Z,17.10
2017-06-27T22:53:13.782Z,17.10
2017-06-27T22:55:42.469Z,17.00
2017-06-27T22:58:11.390Z,17.00
2017-06-27T23:00:40.560Z,17.00
2017-06-27T23:03:09.222Z,16.90
2017-06-27T23:05:38.965Z,16.90
2017-06-27T23:08:07.257Z,16.90
2017-06-27T23:10:35.910Z,16.80
2017-06-27T23:13:04.213Z,16.80
2017-06-27T23:15:32.513Z,16.80
2017-06-27T23:18:01.939Z,16.70
2017-06-27T23:20:31.012Z,16.60
2017-06-27T23:23:00.155Z,16.60
2017-06-27T23:25:28.802Z,16.60
2017-06-27T23:27:58.012Z,16.60
2017-06-27T23:30:26.302Z,16.50
2017-06-27T23:32:55.900Z,16.40
2017-06-27T23:35:25.268Z,16.40
2017-06-27T23:37:55.917Z,16.40
2017-06-27T23:40:24.628Z,16.40
2017-06-27T23:42:53.009Z,16.30
2017-06-27T23:45:21.275Z,16.30
2017-06-27T23:47:50.476Z,16.20
2017-06-27T23:50:18.740Z,16.20
2017-06-27T23:52:47.477Z,16.10
2017-06-27T23:55:16.151Z,16.10
2017-06-27T23:57:44.427Z,16.10
